createdAt,value
2023-02-25T00:00:35.153Z,19.80
2023-02-25T00:03:02.164Z,20.45
2023-02-25T00:05:31.820Z,20.17
2023-02-25T00:07:59.761Z,19.73
2023-02-25T00:10:26.815Z,19.80
2023-02-25T00:12:53.942Z,18.85
2023-02-25T00:15:20.718Z,19.42
2023-02-25T00:17:49.892Z,19.70
2023-02-25T00:20:18.510Z,20.23
2023-02-25T00:22:45.499Z,18.65
2023-02-25T00:25:13.878Z,20.15
2023-02-25T00:27:40.765Z,22.38
2023-02-25T00:30:10.895Z,20.88
2023-02-25T00:32:38.417Z,21.90
2023-02-25T00:35:05.820Z,20.55
2023-02-25T00:37:32.711Z,20.63
2023-02-25T00:39:59.457Z,17.33
2023-02-25T00:42:27.300Z,17.83
2023-02-25T00:44:54.084Z,18.70
2023-02-25T00:47:20.990Z,15.80
2023-02-25T00:49:48.759Z,17.13
2023-02-25T00:52:16.472Z,17.98
2023-02-25T00:54:43.464Z,19.25
2023-02-25T00:57:10.400Z,18.33
2023-02-25T00:59:37.294Z,17.58
2023-02-25T01:02:04.805Z,18.58
2023-02-25T01:04:32.129Z,20.40
2023-02-25T01:07:00.141Z,18.95
2023-02-25T01:09:27.504Z,17.08
2023-02-25T01:11:55.357Z,17.85
2023-02-25T01:14:25.090Z,25.13
2023-02-25T01:16:53.095Z,23.33
2023-02-25T01:19:25.448Z,24.23
2023-02-25T01:21:58.126Z,24.98
2023-02-25T01:24:30.268Z,25.20
2023-02-25T01:26:59.747Z,23.80
2023-02-25T01:29:29.647Z,23.40
2023-02-25T01:31:59.378Z,21.67
2023-02-25T01:34:26.908Z,20.48
2023-02-25T01:36:53.727Z,20.00
2023-02-25T01:39:22.818Z,18.20
2023-02-25T01:41:53.198Z,17.40
2023-02-25T01:44:21.848Z,17.33
2023-02-25T01:46:54.248Z,17.98
2023-02-25T01:49:30.132Z,18.90
2023-02-25T01:52:03.068Z,17.17
2023-02-25T01:54:31.258Z,17.13
2023-02-25T01:56:58.565Z,16.63
2023-02-25T01:59:28.981Z,16.42
2023-02-25T02:01:56.495Z,17.52
2023-02-25T02:04:26.161Z,16.50
2023-02-25T02:06:55.562Z,17.48
2023-02-25T02:09:25.820Z,17.05
2023-02-25T02:11:52.676Z,17.07
2023-02-25T02:14:29.788Z,17.45
2023-02-25T02:17:06.077Z,17.70
2023-02-25T02:19:41.908Z,19.48
2023-02-25T02:22:24.428Z,20.08
2023-02-25T02:25:16.069Z,21.65
2023-02-25T02:28:23.196Z,20.13
2023-02-25T02:31:25.359Z,19.50
2023-02-25T02:34:16.733Z,18.55
2023-02-25T02:36:56.695Z,19.02
2023-02-25T02:39:26.525Z,19.48
2023-02-25T02:41:58.520Z,19.00
2023-02-25T02:44:33.144Z,22.60
2023-02-25T02:47:18.917Z,22.13
2023-02-25T02:49:51.818Z,21.33
2023-02-25T02:52:27.244Z,19.65
2023-02-25T02:55:10.014Z,19.95
2023-02-25T02:57:41.535Z,19.83
2023-02-25T03:00:17.871Z,26.10
2023-02-25T03:02:57.620Z,25.55
2023-02-25T03:05:27.772Z,23.60
2023-02-25T03:08:21.508Z,22.30
2023-02-25T03:10:49.280Z,22.08
2023-02-25T03:13:16.761Z,20.92
2023-02-25T03:15:44.495Z,21.05
2023-02-25T03:18:23.352Z,21.88
2023-02-25T03:20:52.372Z,21.40
2023-02-25T03:23:23.900Z,21.38
2023-02-25T03:26:01.002Z,21.63
2023-02-25T03:28:33.063Z,24.17
2023-02-25T03:31:08.325Z,24.33
2023-02-25T03:33:48.600Z,24.90
2023-02-25T03:36:25.170Z,26.23
2023-02-25T03:38:57.901Z,27.98
2023-02-25T03:41:39.705Z,28.92
2023-02-25T03:44:11.593Z,30.98
2023-02-25T03:46:43.255Z,27.15
2023-02-25T03:49:21.293Z,24.45
2023-02-25T03:51:49.644Z,22.55
2023-02-25T03:54:16.800Z,34.60
2023-02-25T03:56:51.829Z,25.83
2023-02-25T03:59:20.695Z,21.13
2023-02-25T04:01:50.401Z,19.83
2023-02-25T04:04:17.402Z,19.25
2023-02-25T04:06:44.174Z,19.40
2023-02-25T04:09:11.147Z,21.25
2023-02-25T04:11:37.969Z,21.58
2023-02-25T04:14:04.922Z,20.65
2023-02-25T04:16:32.356Z,20.50
2023-02-25T04:19:00.017Z,21.15
2023-02-25T04:21:29.786Z,19.23
2023-02-25T04:23:57.103Z,19.65
2023-02-25T04:26:24.443Z,19.42
2023-02-25T04:28:51.631Z,20.02
2023-02-25T04:31:18.665Z,19.27
2023-02-25T04:33:49.948Z,19.52
2023-02-25T04:36:25.196Z,19.45
2023-02-25T04:38:52.409Z,19.45
2023-02-25T04:41:19.543Z,19.92
2023-02-25T04:43:46.421Z,20.73
2023-02-25T04:46:13.412Z,20.52
2023-02-25T04:48:40.641Z,19.45
2023-02-25T04:51:08.173Z,22.23
2023-02-25T04:53:35.519Z,23.20
2023-02-25T04:56:07.420Z,22.38
2023-02-25T04:58:36.066Z,21.27
2023-02-25T05:01:06.314Z,21.88
2023-02-25T05:03:33.999Z,21.80
2023-02-25T05:06:02.240Z,21.88
2023-02-25T05:08:29.546Z,22.30
2023-02-25T05:10:56.408Z,21.05
2023-02-25T05:13:23.793Z,20.15
2023-02-25T05:15:50.859Z,19.55
2023-02-25T05:18:17.764Z,19.52
2023-02-25T05:20:46.591Z,21.40
2023-02-25T05:23:14.460Z,26.55
2023-02-25T05:25:43.965Z,24.15
2023-02-25T05:28:11.571Z,27.27
2023-02-25T05:30:39.277Z,23.75
2023-02-25T05:33:07.069Z,24.70
2023-02-25T05:35:34.044Z,22.60
2023-02-25T05:38:01.336Z,22.20
2023-02-25T05:40:28.587Z,21.63
2023-02-25T05:42:55.327Z,27.92
2023-02-25T05:45:22.148Z,21.23
2023-02-25T05:47:48.981Z,20.00
2023-02-25T05:50:15.978Z,21.65
2023-02-25T05:52:42.890Z,20.80
2023-02-25T05:55:10.497Z,22.55
2023-02-25T05:57:37.706Z,21.60
2023-02-25T06:00:09.732Z,21.50
2023-02-25T06:02:39.580Z,22.42
2023-02-25T06:05:07.213Z,23.42
2023-02-25T06:07:34.219Z,28.73
2023-02-25T06:10:01.933Z,32.92
2023-02-25T06:12:30.524Z,38.22
2023-02-25T06:14:57.620Z,27.00
2023-02-25T06:17:27.069Z,22.63
2023-02-25T06:19:54.000Z,22.98
2023-02-25T06:22:22.285Z,26.73
2023-02-25T06:24:49.528Z,25.15
2023-02-25T06:27:17.092Z,23.38
2023-02-25T06:29:48.142Z,20.92
2023-02-25T06:32:16.621Z,20.00
2023-02-25T06:34:43.578Z,20.15
2023-02-25T06:37:10.813Z,19.10
2023-02-25T06:39:37.769Z,19.70
2023-02-25T06:42:04.780Z,22.08
2023-02-25T06:44:31.583Z,20.98
2023-02-25T06:46:58.783Z,21.77
2023-02-25T06:49:25.633Z,28.40
2023-02-25T06:51:52.894Z,43.88
2023-02-25T06:54:19.966Z,33.25
2023-02-25T06:56:47.014Z,30.55
2023-02-25T06:59:13.797Z,32.53
2023-02-25T07:01:42.014Z,33.58
2023-02-25T07:04:14.798Z,32.70
2023-02-25T07:06:41.971Z,32.15
2023-02-25T07:09:08.958Z,37.40
2023-02-25T07:11:36.649Z,37.22
2023-02-25T07:14:05.277Z,36.53
2023-02-25T07:16:34.362Z,39.78
2023-02-25T07:19:02.431Z,38.13
2023-02-25T07:21:31.117Z,40.95
2023-02-25T07:23:58.862Z,42.45
2023-02-25T07:26:28.510Z,44.22
2023-02-25T07:28:59.810Z,48.92
2023-02-25T07:31:28.767Z,56.72
2023-02-25T07:33:56.176Z,64.30
2023-02-25T07:36:23.786Z,68.03
2023-02-25T07:38:50.684Z,74.05
2023-02-25T07:41:19.141Z,66.13
2023-02-25T07:43:46.321Z,50.00
2023-02-25T07:46:13.688Z,55.00
2023-02-25T07:48:42.668Z,47.13
2023-02-25T07:51:18.835Z,51.00
2023-02-25T07:53:47.110Z,46.50
2023-02-25T07:56:15.330Z,39.63
2023-02-25T07:58:42.628Z,34.47
2023-02-25T08:01:10.600Z,24.58
2023-02-25T08:03:38.311Z,24.50
2023-02-25T08:06:08.729Z,29.10
2023-02-25T08:08:37.424Z,29.67
2023-02-25T08:11:09.021Z,27.88
2023-02-25T08:13:36.708Z,24.60
2023-02-25T08:16:08.297Z,21.02
2023-02-25T08:18:35.765Z,19.83
2023-02-25T08:21:03.165Z,17.85
2023-02-25T08:23:30.833Z,17.33
2023-02-25T08:26:00.446Z,19.83
2023-02-25T08:28:34.331Z,19.95
2023-02-25T08:31:02.520Z,20.20
2023-02-25T08:33:30.419Z,20.85
2023-02-25T08:36:09.680Z,18.77
2023-02-25T08:38:38.222Z,21.52
2023-02-25T08:41:06.613Z,19.13
2023-02-25T08:43:33.832Z,18.92
2023-02-25T08:46:01.478Z,17.80
2023-02-25T08:48:29.438Z,19.15
2023-02-25T08:50:56.304Z,14.13
2023-02-25T08:53:23.424Z,15.50
2023-02-25T08:55:53.828Z,16.20
2023-02-25T08:58:20.959Z,17.60
2023-02-25T09:00:50.138Z,13.27
2023-02-25T09:03:17.386Z,12.40
2023-02-25T09:05:50.564Z,13.48
2023-02-25T09:08:17.373Z,12.75
2023-02-25T09:10:50.186Z,11.73
2023-02-25T09:13:17.998Z,14.40
2023-02-25T09:15:44.906Z,13.98
2023-02-25T09:18:12.058Z,13.00
2023-02-25T09:20:39.177Z,12.25
2023-02-25T09:23:06.263Z,13.13
2023-02-25T09:25:32.996Z,15.20
2023-02-25T09:28:00.024Z,14.30
2023-02-25T09:30:26.933Z,12.65
2023-02-25T09:32:54.163Z,8.27
2023-02-25T09:35:21.112Z,6.60
2023-02-25T09:37:47.930Z,8.20
2023-02-25T09:40:22.798Z,8.60
2023-02-25T09:43:08.017Z,6.35
2023-02-25T09:45:36.633Z,5.80
2023-02-25T09:48:17.670Z,6.72
2023-02-25T09:50:52.254Z,6.40
2023-02-25T09:53:26.192Z,6.00
2023-02-25T09:55:53.232Z,5.65
2023-02-25T09:58:46.979Z,5.68
2023-02-25T10:01:30.112Z,5.90
2023-02-25T10:04:18.250Z,6.05
2023-02-25T10:06:50.523Z,7.38
2023-02-25T10:09:51.629Z,6.10
2023-02-25T10:12:24.416Z,5.68
2023-02-25T10:15:13.031Z,7.10
2023-02-25T10:18:04.425Z,6.60
2023-02-25T10:23:28.346Z,5.88
2023-02-25T10:26:07.495Z,5.32
2023-02-25T10:28:36.004Z,4.60
2023-02-25T10:31:09.486Z,5.88
2023-02-25T10:33:40.554Z,5.05
2023-02-25T10:36:15.033Z,4.38
2023-02-25T10:38:48.016Z,5.70
2023-02-25T10:41:15.300Z,4.95
2023-02-25T10:43:43.809Z,5.25
2023-02-25T10:46:18.938Z,5.18
2023-02-25T10:48:58.130Z,5.57
2023-02-25T10:51:27.561Z,5.07
2023-02-25T10:53:57.451Z,4.88
2023-02-25T10:56:27.463Z,4.85
2023-02-25T10:59:04.769Z,4.70
2023-02-25T11:01:39.602Z,4.93
2023-02-25T11:04:13.590Z,4.70
2023-02-25T11:06:42.869Z,4.80
2023-02-25T11:09:18.802Z,7.47
2023-02-25T11:11:57.951Z,6.88
2023-02-25T11:14:31.183Z,6.43
2023-02-25T11:17:13.113Z,5.20
2023-02-25T11:20:01.769Z,5.13
2023-02-25T11:22:37.973Z,5.20
2023-02-25T11:25:15.830Z,5.22
2023-02-25T11:27:45.525Z,4.43
2023-02-25T11:30:12.570Z,4.47
2023-02-25T11:32:54.491Z,5.45
2023-02-25T11:35:30.604Z,5.43
2023-02-25T11:37:59.700Z,4.95
2023-02-25T11:40:33.054Z,5.55
2023-02-25T11:43:17.185Z,4.47
2023-02-25T11:45:57.404Z,4.53
2023-02-25T11:48:45.475Z,5.80
2023-02-25T11:51:35.670Z,4.57
2023-02-25T11:54:38.185Z,4.38
2023-02-25T11:57:14.588Z,4.60
2023-02-25T12:00:11.662Z,5.15
2023-02-25T12:03:15.558Z,4.45
2023-02-25T12:06:07.670Z,5.13
2023-02-25T12:08:50.364Z,4.47
2023-02-25T12:11:58.466Z,5.47
2023-02-25T12:15:19.639Z,5.25
2023-02-25T12:17:58.507Z,4.50
2023-02-25T12:20:29.149Z,4.50
2023-02-25T12:23:15.003Z,5.45
2023-02-25T12:25:47.901Z,5.80
2023-02-25T12:28:32.907Z,5.28
2023-02-25T12:31:36.606Z,4.40
2023-02-25T12:34:25.002Z,5.88
2023-02-25T12:36:54.838Z,8.20
2023-02-25T12:40:03.420Z,5.97
2023-02-25T12:42:57.722Z,4.00
2023-02-25T12:45:30.926Z,5.70
2023-02-25T12:48:03.815Z,5.80
2023-02-25T12:50:42.949Z,5.97
2023-02-25T12:53:47.246Z,4.43
2023-02-25T12:56:35.766Z,4.70
2023-02-25T12:59:13.616Z,6.50
2023-02-25T13:02:02.192Z,6.05
2023-02-25T13:04:50.634Z,7.70
2023-02-25T13:07:48.378Z,8.25
2023-02-25T13:10:41.815Z,11.65
2023-02-25T13:13:46.282Z,16.17
2023-02-25T13:16:19.306Z,13.93
2023-02-25T13:18:55.115Z,9.23
2023-02-25T13:21:41.060Z,8.75
2023-02-25T13:25:05.174Z,10.50
2023-02-25T13:27:53.856Z,8.02
2023-02-25T13:30:32.749Z,8.02
2023-02-25T13:33:46.261Z,5.35
2023-02-25T13:36:32.850Z,6.22
2023-02-25T13:39:28.576Z,5.38
2023-02-25T13:42:04.502Z,6.25
2023-02-25T13:44:36.120Z,6.13
2023-02-25T13:47:37.229Z,8.52
2023-02-25T13:50:28.480Z,6.38
2023-02-25T13:53:34.957Z,6.10
2023-02-25T13:56:01.920Z,5.05
2023-02-25T13:59:02.747Z,6.80
2023-02-25T14:01:38.011Z,5.28
2023-02-25T14:04:09.013Z,5.88
2023-02-25T14:07:05.939Z,7.32
2023-02-25T14:09:46.287Z,8.20
2023-02-25T14:12:22.440Z,6.55
2023-02-25T14:15:23.679Z,6.03
2023-02-25T14:18:10.860Z,7.20
2023-02-25T14:20:46.843Z,7.47
2023-02-25T14:23:27.911Z,10.07
2023-02-25T14:26:09.931Z,11.40
2023-02-25T14:29:07.645Z,7.82
2023-02-25T14:31:49.720Z,9.48
2023-02-25T14:34:56.270Z,7.22
2023-02-25T14:37:29.417Z,9.52
2023-02-25T14:39:59.278Z,10.52
2023-02-25T14:42:49.558Z,14.73
2023-02-25T14:45:29.805Z,11.32
2023-02-25T14:48:10.804Z,8.20
2023-02-25T14:50:52.491Z,10.73
2023-02-25T14:53:41.443Z,10.57
2023-02-25T14:56:08.690Z,11.43
2023-02-25T14:59:03.703Z,10.32
2023-02-25T15:02:13.105Z,10.02
2023-02-25T15:05:23.952Z,8.32
2023-02-25T15:08:25.611Z,8.70
2023-02-25T15:11:31.159Z,7.78
2023-02-25T15:14:22.848Z,8.32
2023-02-25T15:17:21.602Z,7.88
2023-02-25T15:19:51.656Z,8.75
2023-02-25T15:22:21.129Z,10.63
2023-02-25T15:24:49.616Z,8.23
2023-02-25T15:27:36.189Z,8.90
2023-02-25T15:30:06.943Z,9.38
2023-02-25T15:33:02.008Z,8.90
2023-02-25T15:35:34.927Z,10.88
2023-02-25T15:38:14.714Z,8.60
2023-02-25T15:40:45.218Z,11.02
2023-02-25T15:43:15.376Z,9.48
2023-02-25T15:45:48.002Z,9.60
2023-02-25T15:48:21.246Z,10.77
2023-02-25T15:50:48.035Z,10.48
2023-02-25T15:53:21.307Z,11.45
2023-02-25T15:55:50.315Z,10.85
2023-02-25T15:58:43.165Z,7.78
2023-02-25T16:01:25.346Z,8.32
2023-02-25T16:03:53.028Z,10.32
2023-02-25T16:06:23.158Z,17.15
2023-02-25T16:09:06.946Z,17.30
2023-02-25T16:11:44.718Z,14.13
2023-02-25T16:14:28.851Z,11.57
2023-02-25T16:17:03.583Z,10.45
2023-02-25T16:19:35.955Z,9.10
2023-02-25T16:22:19.625Z,8.75
2023-02-25T16:24:50.145Z,10.35
2023-02-25T16:27:41.467Z,10.63
2023-02-25T16:30:17.536Z,20.30
2023-02-25T16:32:54.795Z,30.75
2023-02-25T16:35:25.485Z,21.02
2023-02-25T16:38:02.817Z,24.87
2023-02-25T16:40:35.584Z,36.08
2023-02-25T16:43:02.854Z,25.85
2023-02-25T16:45:34.134Z,57.83
2023-02-25T16:48:26.947Z,21.58
2023-02-25T16:50:54.932Z,11.23
2023-02-25T16:53:25.623Z,15.07
2023-02-25T16:55:59.060Z,11.88
2023-02-25T16:58:28.631Z,12.38
2023-02-25T17:01:01.934Z,11.88
2023-02-25T17:03:33.173Z,10.70
2023-02-25T17:06:00.277Z,9.55
2023-02-25T17:08:27.822Z,12.25
2023-02-25T17:10:56.803Z,12.82
2023-02-25T17:13:32.249Z,9.32
2023-02-25T17:16:00.841Z,10.05
2023-02-25T17:18:43.268Z,10.25
2023-02-25T17:21:22.708Z,13.98
2023-02-25T17:23:51.408Z,12.80
2023-02-25T17:26:19.521Z,10.93
2023-02-25T17:28:51.647Z,9.20
2023-02-25T17:31:26.898Z,11.73
2023-02-25T17:33:57.109Z,10.05
2023-02-25T17:36:28.793Z,8.77
2023-02-25T17:38:59.121Z,10.38
2023-02-25T17:41:26.880Z,9.18
2023-02-25T17:43:54.091Z,14.38
2023-02-25T17:46:36.324Z,22.88
2023-02-25T17:49:27.637Z,26.85
2023-02-25T17:51:57.675Z,18.52
2023-02-25T17:54:26.974Z,17.42
2023-02-25T17:57:19.959Z,14.90
2023-02-25T17:59:55.839Z,15.45
2023-02-25T18:02:51.449Z,12.48
2023-02-25T18:05:24.336Z,22.17
2023-02-25T18:08:09.373Z,18.20
2023-02-25T18:10:36.272Z,28.77
2023-02-25T18:13:05.082Z,19.77
2023-02-25T18:15:34.460Z,18.73
2023-02-25T18:18:04.481Z,12.55
2023-02-25T18:20:41.045Z,11.63
2023-02-25T18:23:21.009Z,16.20
2023-02-25T18:26:10.347Z,15.63
2023-02-25T18:28:38.483Z,15.27
2023-02-25T18:31:05.712Z,20.23
2023-02-25T18:33:32.850Z,25.33
2023-02-25T18:36:00.281Z,26.63
2023-02-25T18:38:31.486Z,47.60
2023-02-25T18:40:58.605Z,35.38
2023-02-25T18:43:30.930Z,61.78
2023-02-25T18:45:58.097Z,30.83
2023-02-25T18:48:24.954Z,27.58
2023-02-25T18:50:52.138Z,26.13
2023-02-25T18:53:24.087Z,23.05
2023-02-25T18:55:52.940Z,18.38
2023-02-25T18:58:21.403Z,33.40
2023-02-25T19:00:55.465Z,34.00
2023-02-25T19:03:28.870Z,39.83
2023-02-25T19:05:56.328Z,21.00
2023-02-25T19:08:23.527Z,19.15
2023-02-25T19:10:53.083Z,22.08
2023-02-25T19:13:28.916Z,18.25
2023-02-25T19:15:55.915Z,21.00
2023-02-25T19:18:23.168Z,24.73
2023-02-25T19:20:50.639Z,29.35
2023-02-25T19:23:18.712Z,30.45
2023-02-25T19:25:48.341Z,22.48
2023-02-25T19:28:15.159Z,20.50
2023-02-25T19:30:43.782Z,20.17
2023-02-25T19:33:12.522Z,21.30
2023-02-25T19:35:42.569Z,18.38
2023-02-25T19:38:17.117Z,21.73
2023-02-25T19:40:45.708Z,26.48
2023-02-25T19:43:12.833Z,27.60
2023-02-25T19:45:41.023Z,22.83
2023-02-25T19:48:08.741Z,29.45
2023-02-25T19:50:37.055Z,26.98
2023-02-25T19:53:05.657Z,20.33
2023-02-25T19:55:33.420Z,21.95
2023-02-25T19:58:00.519Z,22.13
2023-02-25T20:00:27.954Z,15.90
2023-02-25T20:02:56.279Z,18.55
2023-02-25T20:05:23.730Z,19.33
2023-02-25T20:07:51.330Z,22.08
2023-02-25T20:10:19.782Z,61.40
2023-02-25T20:12:48.066Z,33.25
2023-02-25T20:15:16.737Z,25.20
2023-02-25T20:17:45.745Z,27.30
2023-02-25T20:20:14.813Z,24.13
2023-02-25T20:22:42.322Z,29.13
2023-02-25T20:25:10.841Z,31.23
2023-02-25T20:27:39.906Z,31.10
2023-02-25T20:30:07.846Z,26.25
2023-02-25T20:32:34.915Z,23.20
2023-02-25T20:35:02.363Z,23.38
2023-02-25T20:37:33.113Z,29.60
2023-02-25T20:40:00.718Z,23.92
2023-02-25T20:42:30.213Z,17.52
2023-02-25T20:44:58.285Z,20.23
2023-02-25T20:47:35.029Z,19.08
2023-02-25T20:50:02.839Z,16.75
2023-02-25T20:52:29.964Z,15.18
2023-02-25T20:54:58.185Z,14.25
2023-02-25T20:57:26.826Z,15.55
2023-02-25T20:59:54.526Z,20.42
2023-02-25T21:02:22.031Z,23.00
2023-02-25T21:04:49.263Z,21.63
2023-02-25T21:07:16.438Z,22.02
2023-02-25T21:09:43.289Z,22.23
2023-02-25T21:12:10.266Z,24.15
2023-02-25T21:14:37.295Z,26.13
2023-02-25T21:17:09.401Z,25.98
2023-02-25T21:19:38.684Z,23.42
2023-02-25T21:22:06.877Z,23.95
2023-02-25T21:24:34.684Z,23.45
2023-02-25T21:27:01.840Z,47.53
2023-02-25T21:29:28.953Z,80.22
2023-02-25T21:31:55.795Z,39.42
2023-02-25T21:34:22.881Z,62.33
2023-02-25T21:36:49.727Z,61.78
2023-02-25T21:39:16.839Z,40.58
2023-02-25T21:41:45.137Z,39.70
2023-02-25T21:44:12.849Z,38.65
2023-02-25T21:46:40.965Z,27.95
2023-02-25T21:49:10.455Z,23.90
2023-02-25T21:51:37.560Z,21.73
2023-02-25T21:54:04.430Z,22.05
2023-02-25T21:56:31.821Z,22.23
2023-02-25T21:59:00.836Z,21.00
2023-02-25T22:01:30.518Z,21.67
2023-02-25T22:03:58.462Z,41.60
2023-02-25T22:06:26.297Z,31.35
2023-02-25T22:08:54.412Z,26.85
2023-02-25T22:11:24.959Z,23.00
2023-02-25T22:13:52.792Z,32.13
2023-02-25T22:16:21.090Z,42.83
2023-02-25T22:18:48.175Z,39.92
2023-02-25T22:21:36.091Z,35.03
2023-02-25T22:24:04.697Z,29.02
2023-02-25T22:26:33.533Z,29.55
2023-02-25T22:29:04.823Z,27.90
2023-02-25T22:31:32.899Z,29.05
2023-02-25T22:34:00.118Z,29.65
2023-02-25T22:36:27.690Z,28.60
2023-02-25T22:38:55.887Z,26.60
2023-02-25T22:41:25.613Z,28.33
2023-02-25T22:43:52.773Z,28.45
2023-02-25T22:46:29.476Z,28.75
2023-02-25T22:48:56.808Z,25.27
2023-02-25T22:51:35.962Z,22.63
2023-02-25T22:54:04.196Z,21.02
2023-02-25T22:56:30.984Z,21.80
2023-02-25T22:58:57.965Z,21.67
2023-02-25T23:01:25.917Z,21.85
2023-02-25T23:03:54.300Z,22.23
2023-02-25T23:06:34.265Z,23.45
2023-02-25T23:09:09.384Z,23.35
2023-02-25T23:11:36.230Z,23.27
2023-02-25T23:14:04.215Z,22.23
2023-02-25T23:16:37.116Z,21.90
2023-02-25T23:19:05.204Z,21.63
2023-02-25T23:21:33.393Z,21.75
2023-02-25T23:24:01.964Z,22.70
2023-02-25T23:26:36.677Z,19.17
2023-02-25T23:29:06.726Z,21.10
2023-02-25T23:31:38.953Z,22.58
2023-02-25T23:34:11.715Z,19.88
2023-02-25T23:36:40.195Z,24.20
2023-02-25T23:39:08.400Z,24.73
2023-02-25T23:41:36.424Z,28.40
2023-02-25T23:44:04.552Z,25.98
2023-02-25T23:46:32.703Z,22.08
2023-02-25T23:49:02.191Z,16.65
2023-02-25T23:51:29.337Z,14.35
2023-02-25T23:53:58.887Z,12.80
2023-02-25T23:56:29.661Z,9.70
2023-02-25T23:58:57.025Z,10.68
